Time;durP1;ratioP1;P1;durP2;ratioP2;P2;SDS_P1;SDS_P2;PMS_P1;PMS_P2;Temp;Humidity;BMP_temperature;BMP_pressure;BME280_temperature;BME280_humidity;BME280_pressure;Samples;Min_cycle;Max_cycle;Signal;HPM_P1;HPM_P2
2021/04/21 00:00:02;;;;;;;;;;;;;;;-144.99;60.73;52174.97;5005656;28;20356;-73
2021/04/21 00:02:33;;;;;;;;;;;;;;;-144.99;60.82;52158.66;5007358;28;20068;-73
2021/04/21 00:05:12;;;;;;;;;;;;;;;-144.99;60.94;52142.38;5008046;28;20336;-73
2021/04/21 00:07:42;;;;;;;;;;;;;;;-144.99;61.12;52130.13;5004532;28;20510;-72
2021/04/21 00:10:14;;;;;;;;;;;;;;;-144.99;61.09;52189.25;5019182;28;19977;-72
2021/04/21 00:12:46;;;;;;;;;;;;;;;-144.99;61.38;52164.78;5011613;28;20372;-72
2021/04/21 00:15:18;;;;;;;;;;;;;;;-144.99;61.24;52179.06;5007104;28;20026;-72
2021/04/21 00:17:51;;;;;;;;;;;;;;;-144.99;61.47;52166.81;5004857;28;20002;-73
2021/04/21 00:20:23;;;;;;;;;;;;;;;-144.99;61.28;52146.44;5006257;28;20022;-71
2021/04/21 00:22:57;;;;;;;;;;;;;;;-144.99;61.50;52195.34;5002657;28;20479;-72
2021/04/21 00:25:26;;;;;;;;;;;;;;;-144.99;61.47;52177.00;5004761;28;20451;-73
2021/04/21 00:27:58;;;;;;;;;;;;;;;-144.99;61.54;52158.66;5002306;28;19972;-73
2021/04/21 00:30:31;;;;;;;;;;;;;;;-144.99;61.61;52136.25;4997728;28;19986;-73
2021/04/21 00:33:02;;;;;;;;;;;;;;;-144.99;61.54;52191.28;5006563;28;19982;-73
2021/04/21 00:35:37;;;;;;;;;;;;;;;-144.99;61.40;52170.91;5002851;28;19986;-73
2021/04/21 00:38:11;;;;;;;;;;;;;;;-144.99;61.43;52166.81;5004131;28;19987;-73
2021/04/21 00:40:48;;;;;;;;;;;;;;;-144.99;61.48;52183.13;5001846;28;19976;-75
2021/04/21 00:43:22;;;;;;;;;;;;;;;-144.99;61.59;52146.44;5003060;28;19953;-73
2021/04/21 00:48:41;;;;;;;;;;;;;;;-144.99;61.77;52117.91;4997304;28;19996;-78
2021/04/21 00:51:13;;;;;;;;;;;;;;;-144.99;61.63;52158.66;5004575;28;20557;-81
2021/04/21 00:53:47;;;;;;;;;;;;;;;-144.99;61.78;52142.38;5013845;28;19984;-81
2021/04/21 00:56:19;;;;;;;;;;;;;;;-144.99;61.50;52142.38;5007029;28;20036;-82
2021/04/21 00:58:52;;;;;;;;;;;;;;;-144.99;61.58;52172.94;4994087;28;20347;-82
2021/04/21 01:01:25;;;;;;;;;;;;;;;-144.99;61.67;52146.44;4998485;28;19972;-81
2021/04/21 01:03:56;;;;;;;;;;;;;;;-144.99;61.68;52181.09;5001063;28;19973;-83
2021/04/21 01:06:31;;;;;;;;;;;;;;;-144.99;61.61;52146.44;4989826;28;19996;-79
2021/04/21 01:09:07;;;;;;;;;;;;;;;-144.99;61.81;52132.19;4995321;28;19982;-79
2021/04/21 01:11:41;;;;;;;;;;;;;;;-144.99;61.65;52158.66;4995100;28;20026;-79
2021/04/21 01:14:11;;;;;;;;;;;;;;;-144.99;61.65;52160.72;4995459;28;20063;-79
2021/04/21 01:16:41;;;;;;;;;;;;;;;-144.99;61.81;52203.50;4991559;28;20008;-79
2021/04/21 01:19:14;;;;;;;;;;;;;;;-144.99;61.94;52134.22;4990091;28;19998;-77
2021/04/21 01:21:47;;;;;;;;;;;;;;;-144.99;62.01;52152.56;4995045;28;19988;-78
2021/04/21 01:24:33;;;;;;;;;;;;;;;-144.99;61.93;52158.66;4994492;28;19970;-78
2021/04/21 01:27:10;;;;;;;;;;;;;;;-144.99;61.97;52134.22;4992590;28;20014;-79
2021/04/21 01:29:42;;;;;;;;;;;;;;;-144.99;62.01;52150.53;4991467;28;19982;-77
2021/04/21 01:32:15;;;;;;;;;;;;;;;-144.99;62.18;52179.06;4996412;28;19970;-82
2021/04/21 01:34:42;;;;;;;;;;;;;;;-144.99;62.43;52183.13;4993907;28;19979;-80
2021/04/21 01:37:15;;;;;;;;;;;;;;;-144.99;62.29;52179.06;4997536;28;20521;-78
2021/04/21 01:39:47;;;;;;;;;;;;;;;-144.99;62.35;52126.06;4998985;28;20519;-79
2021/04/21 01:42:20;;;;;;;;;;;;;;;-144.99;62.54;52170.91;4996019;28;20354;-78
2021/04/21 01:44:54;;;;;;;;;;;;;;;-144.99;62.60;52158.66;4989863;28;19976;-79
2021/04/21 01:47:25;;;;;;;;;;;;;;;-144.99;62.73;52179.06;4992105;28;20012;-78
2021/04/21 01:50:03;;;;;;;;;;;;;;;-144.99;62.88;52154.59;4997776;28;20451;-78
2021/04/21 01:52:49;;;;;;;;;;;;;;;-144.99;63.15;52142.38;4994381;28;20003;-80
2021/04/21 01:55:27;;;;;;;;;;;;;;;-144.99;63.01;52179.06;4996865;28;19978;-78
2021/04/21 01:58:00;;;;;;;;;;;;;;;-144.99;63.12;52174.97;5000400;28;19998;-80
2021/04/21 02:00:36;;;;;;;;;;;;;;;-144.99;63.23;52146.44;4999364;28;20053;-80
2021/04/21 02:03:14;;;;;;;;;;;;;;;-144.99;63.28;52134.22;4998837;28;20036;-80
2021/04/21 02:05:48;;;;;;;;;;;;;;;-144.99;63.58;52168.84;5000201;28;19988;-80
2021/04/21 02:08:21;;;;;;;;;;;;;;;-144.99;63.55;52158.66;4993810;28;20091;-81
2021/04/21 02:10:56;;;;;;;;;;;;;;;-144.99;63.62;52187.19;5011622;28;19978;-79
2021/04/21 02:13:32;;;;;;;;;;;;;;;-144.99;63.94;52154.59;4998317;28;20495;-79
2021/04/21 02:16:25;;;;;;;;;;;;;;;-144.99;64.00;52177.00;4998881;28;19972;-79
2021/04/21 02:19:11;;;;;;;;;;;;;;;-144.99;64.00;52174.97;5002301;28;20030;-81
2021/04/21 02:21:43;;;;;;;;;;;;;;;-144.99;63.89;52164.78;4999753;28;19988;-81
2021/04/21 02:24:20;;;;;;;;;;;;;;;-144.99;64.14;52174.97;5004988;28;20006;-81
2021/04/21 02:26:54;;;;;;;;;;;;;;;-144.99;64.16;52158.66;4998601;28;20009;-80
2021/04/21 02:29:27;;;;;;;;;;;;;;;-144.99;64.47;52185.16;4999980;28;19982;-76
2021/04/21 02:32:07;;;;;;;;;;;;;;;-144.99;65.10;52174.97;5000592;28;20002;-74
2021/04/21 02:34:44;;;;;;;;;;;;;;;-144.99;65.55;52146.44;4997717;28;20065;-75
2021/04/21 02:37:19;;;;;;;;;;;;;;;-144.99;65.31;52191.28;4998631;28;19997;-76
2021/04/21 02:39:54;;;;;;;;;;;;;;;-144.99;65.62;52172.94;4999068;28;19981;-78
2021/04/21 02:42:29;;;;;;;;;;;;;;;-144.99;65.54;52195.34;5000119;28;19980;-77
2021/04/21 02:45:12;;;;;;;;;;;;;;;-144.99;65.98;52146.44;4998706;28;19974;-76
2021/04/21 02:47:43;;;;;;;;;;;;;;;-144.99;66.14;52162.75;4994721;28;20041;-77
2021/04/21 02:50:18;;;;;;;;;;;;;;;-144.99;66.06;52203.50;4995003;28;19978;-77
2021/04/21 02:52:58;;;;;;;;;;;;;;;-144.99;66.09;52179.06;4997573;28;20034;-76
2021/04/21 02:55:31;;;;;;;;;;;;;;;-144.99;66.23;52152.56;4996473;28;19978;-77
2021/04/21 02:58:08;;;;;;;;;;;;;;;-144.99;66.36;52130.13;4999562;28;20490;-75
2021/04/21 03:00:44;;;;;;;;;;;;;;;-144.99;66.54;52166.81;4995329;28;19974;-74
2021/04/21 03:03:19;;;;;;;;;;;;;;;-144.99;66.73;52179.06;5000213;28;20027;-77
2021/04/21 03:05:53;;;;;;;;;;;;;;;-144.99;66.70;52185.16;4992730;28;19986;-77
2021/04/21 03:08:29;;;;;;;;;;;;;;;-144.99;66.84;52154.59;4997785;28;19974;-78
2021/04/21 03:11:05;;;;;;;;;;;;;;;-144.99;67.07;52172.94;4994209;28;19990;-78
2021/04/21 03:13:38;;;;;;;;;;;;;;;-144.99;67.33;52138.28;4994884;28;19993;-77
2021/04/21 03:16:11;;;;;;;;;;;;;;;-144.99;67.51;52121.97;4995578;28;20046;-75
2021/04/21 03:18:42;;;;;;;;;;;;;;;-144.99;67.60;52132.19;4989237;28;20040;-76
2021/04/21 03:21:13;;;;;;;;;;;;;;;-144.99;67.79;52172.94;4993527;28;19974;-74
2021/04/21 03:23:45;;;;;;;;;;;;;;;-144.99;67.96;52117.91;4992240;28;20058;-77
2021/04/21 03:26:19;;;;;;;;;;;;;;;-144.99;67.89;52146.44;4997715;28;20000;-77
2021/04/21 03:28:55;;;;;;;;;;;;;;;-144.99;68.27;52158.66;4997592;28;19975;-78
2021/04/21 03:31:29;;;;;;;;;;;;;;;-144.99;68.65;52136.25;4993571;28;19981;-77
2021/04/21 03:34:03;;;;;;;;;;;;;;;-144.99;68.97;52158.66;4994504;28;19982;-77
2021/04/21 03:36:35;;;;;;;;;;;;;;;-144.99;69.36;52172.94;4995265;28;19996;-79
2021/04/21 03:39:04;;;;;;;;;;;;;;;-144.99;69.50;52117.91;4992541;28;19990;-79
2021/04/21 03:41:35;;;;;;;;;;;;;;;-144.99;69.85;52158.66;4999686;28;19974;-77
2021/04/21 03:44:04;;;;;;;;;;;;;;;-144.99;69.89;52183.13;4999404;28;19984;-74
2021/04/21 03:46:36;;;;;;;;;;;;;;;-144.99;69.89;52183.13;5001048;28;20009;-75
2021/04/21 03:49:11;;;;;;;;;;;;;;;-144.99;70.01;52166.81;5003384;28;19984;-77
2021/04/21 03:51:43;;;;;;;;;;;;;;;-144.99;70.67;52179.06;4996256;28;19977;-76
2021/04/21 03:54:15;;;;;;;;;;;;;;;-144.99;71.03;52174.97;4999738;28;20008;-75
2021/04/21 03:56:48;;;;;;;;;;;;;;;-144.99;71.24;52174.97;5000245;28;20430;-79
2021/04/21 03:59:20;;;;;;;;;;;;;;;-144.99;71.44;52158.66;4999183;28;19989;-79
2021/04/21 04:01:53;;;;;;;;;;;;;;;-144.99;71.41;52183.13;5000556;28;19974;-79
2021/04/21 04:04:23;;;;;;;;;;;;;;;-144.99;71.93;52156.63;4993838;28;19985;-75
2021/04/21 04:06:56;;;;;;;;;;;;;;;-144.99;72.35;52146.44;4995999;28;20611;-77
2021/04/21 04:09:29;;;;;;;;;;;;;;;-144.99;72.58;52179.06;4997913;28;19983;-77
2021/04/21 04:12:04;;;;;;;;;;;;;;;-144.99;72.83;52158.66;4999318;28;19933;-78
2021/04/21 04:14:36;;;;;;;;;;;;;;;-144.99;73.27;52181.09;4993474;28;19936;-78
2021/04/21 04:17:09;;;;;;;;;;;;;;;-144.99;73.82;52142.38;4994590;28;19926;-76
2021/04/21 04:19:44;;;;;;;;;;;;;;;-144.99;74.37;52193.31;4995419;28;19930;-76
2021/04/21 04:22:16;;;;;;;;;;;;;;;-144.99;75.83;52170.91;5002052;28;19929;-76
2021/04/21 04:24:50;;;;;;;;;;;;;;;-144.99;76.22;52179.06;5002557;28;19926;-78
2021/04/21 04:27:20;;;;;;;;;;;;;;;-144.99;76.40;52142.38;4996250;28;20368;-76
2021/04/21 04:29:52;;;;;;;;;;;;;;;-144.99;76.67;52187.19;5000578;28;19948;-77
2021/04/21 04:32:24;;;;;;;;;;;;;;;-144.99;76.70;52111.78;5000884;28;19930;-76
2021/04/21 04:34:55;;;;;;;;;;;;;;;-144.99;76.97;52166.81;4997585;28;19976;-74
2021/04/21 04:37:27;;;;;;;;;;;;;;;-144.99;77.35;52134.22;4999012;28;19961;-79
2021/04/21 04:39:59;;;;;;;;;;;;;;;-144.99;77.43;52170.91;4984338;28;19930;-76
2021/04/21 04:42:28;;;;;;;;;;;;;;;-144.99;77.26;52136.25;4998078;28;20326;-75
2021/04/21 04:45:00;;;;;;;;;;;;;;;-144.99;77.21;52146.44;4997237;28;19929;-76
2021/04/21 04:47:32;;;;;;;;;;;;;;;-144.99;77.28;52150.53;5000168;28;19926;-77
2021/04/21 04:50:07;;;;;;;;;;;;;;;-144.99;77.35;52154.59;4999210;28;19941;-76
2021/04/21 04:52:40;;;;;;;;;;;;;;;-144.99;77.13;52177.00;4994528;28;19926;-77
2021/04/21 04:55:12;;;;;;;;;;;;;;;-144.99;77.18;52150.53;4992971;28;20019;-76
2021/04/21 04:57:39;;;;;;;;;;;;;;;-144.99;77.07;52179.06;4997835;28;20342;-75
2021/04/21 05:00:11;;;;;;;;;;;;;;;-144.99;76.99;52146.44;4994468;28;19974;-74
2021/04/21 05:02:45;;;;;;;;;;;;;;;-144.99;76.99;52128.09;4302357;28;10001552;-76
2021/04/21 05:05:18;;;;;;;;;;;;;;;-144.99;76.86;52117.91;4644048;28;10000344;-77
2021/04/21 05:07:55;;;;;;;;;;;;;;;-144.99;76.71;52179.06;4989675;28;19931;-77
2021/04/21 05:10:28;;;;;;;;;;;;;;;-144.99;76.75;52136.25;4988093;28;19926;-77
2021/04/21 05:13:01;;;;;;;;;;;;;;;-144.99;76.72;52166.81;4995140;28;19926;-77
2021/04/21 05:16:02;;;;;;;;;;;;;;;-144.99;77.22;52174.97;4996351;28;19940;-77
2021/04/21 05:18:47;;;;;;;;;;;;;;;-144.99;77.10;52162.75;4988255;28;20068;-76
2021/04/21 05:21:39;;;;;;;;;;;;;;;-144.99;77.20;52138.28;4991298;28;19940;-76
2021/04/21 05:24:34;;;;;;;;;;;;;;;-144.99;77.28;52154.59;4985202;28;19929;-75
2021/04/21 05:27:17;;;;;;;;;;;;;;;-144.99;77.49;52134.22;4992054;28;20753;-77
2021/04/21 05:30:16;;;;;;;;;;;;;;;-144.99;77.50;52097.53;4989548;28;19984;-75
2021/04/21 05:33:17;;;;;;;;;;;;;;;-144.99;77.44;52130.13;4936018;29;19931;-76
2021/04/21 05:36:03;;;;;;;;;;;;;;;-144.99;77.44;52154.59;4992344;28;19936;-75
2021/04/21 05:38:51;;;;;;;;;;;;;;;-144.99;77.20;52154.59;4991504;28;19930;-75
2021/04/21 05:41:57;;;;;;;;;;;;;;;-144.99;77.01;52142.38;4996048;28;19929;-76
2021/04/21 05:44:53;;;;;;;;;;;;;;;-144.99;76.91;52138.28;4993136;28;20416;-77
2021/04/21 05:47:41;;;;;;;;;;;;;;;-144.99;76.93;52152.56;4991118;28;19930;-77
2021/04/21 05:50:32;;;;;;;;;;;;;;;-144.99;76.94;52093.44;4992290;28;20388;-75
2021/04/21 05:53:33;;;;;;;;;;;;;;;-144.99;77.29;52158.66;4994425;28;20481;-76
2021/04/21 05:56:20;;;;;;;;;;;;;;;-144.99;77.10;52085.31;4998007;28;20636;-75
2021/04/21 05:59:12;;;;;;;;;;;;;;;-144.99;77.16;52109.75;4994227;28;19930;-74
2021/04/21 06:01:46;;;;;;;;;;;;;;;-144.99;77.10;52109.75;4993196;28;19936;-76
2021/04/21 06:04:18;;;;;;;;;;;;;;;-144.99;76.95;52077.16;4990839;28;20375;-75
2021/04/21 06:06:50;;;;;;;;;;;;;;;-144.99;76.75;52109.75;4991870;28;19926;-76
2021/04/21 06:09:21;;;;;;;;;;;;;;;-144.99;76.49;52126.06;4994473;28;19925;-77
2021/04/21 06:12:06;;;;;;;;;;;;;;;-144.99;76.34;52097.53;4992310;28;19936;-77
2021/04/21 06:14:39;;;;;;;;;;;;;;;-144.99;76.15;52119.94;4997470;28;19969;-78
2021/04/21 06:17:10;;;;;;;;;;;;;;;-144.99;76.02;52121.97;4996559;28;19940;-75
2021/04/21 06:19:46;;;;;;;;;;;;;;;-144.99;75.80;52093.44;4996669;28;19925;-76
2021/04/21 06:22:28;;;;;;;;;;;;;;;-144.99;75.62;52130.13;4993935;28;19930;-77
2021/04/21 06:25:18;;;;;;;;;;;;;;;-144.99;75.59;52107.72;4996936;28;20249;-77
2021/04/21 06:27:49;;;;;;;;;;;;;;;-144.99;75.24;52121.97;4991431;28;20405;-78
2021/04/21 06:30:23;;;;;;;;;;;;;;;-144.99;74.73;52121.97;4993507;28;20433;-80
2021/04/21 06:33:04;;;;;;;115.35;62.08;;;;;;;-144.99;74.19;52146.44;4988450;28;24519;-77
2021/04/21 06:35:36;;;;;;;;;;;;;;;-144.99;73.34;52134.22;4999804;28;20306;-77
2021/04/21 06:38:08;;;;;;;;;;;;;;;-144.99;73.13;52105.69;4992002;28;24994;-79
2021/04/21 06:40:40;;;;;;;;;;;;;;;-144.99;72.90;52126.06;4986141;28;19983;-78
2021/04/21 06:43:11;;;;;;;;;;;;;;;-144.99;72.47;52085.31;4997311;28;20058;-75
2021/04/21 06:45:44;;;;;;;;;;;;;;;-144.99;72.21;52097.53;4992822;28;19976;-75
2021/04/21 06:48:28;;;;;;;;;;;;;;;-144.99;71.76;52109.75;5027700;22;20610;-76
2021/04/21 06:51:08;;;;;;;;;;;;;;;-144.99;70.85;52089.38;5001743;28;19983;-75
2021/04/21 06:53:40;;;;;;;;;;;;;;;-144.99;70.20;52140.31;5004270;28;20360;-78
2021/04/21 06:56:12;;;;;;;;;;;;;;;-144.99;69.85;52075.09;5003232;28;19979;-77
2021/04/21 06:58:41;;;;;;;;;;;;;;;-144.99;69.40;52134.22;5004194;28;20086;-77
2021/04/21 07:01:13;;;;;;;;;;;;;;;-144.99;68.43;52126.06;5007416;28;19977;-77
2021/04/21 07:03:45;;;;;;;;;;;;;;;-144.99;67.55;52115.88;5003239;28;20083;-77
2021/04/21 07:06:17;;;;;;;;;;;;;;;-144.99;67.97;52085.31;5003898;28;19982;-79
2021/04/21 07:08:48;;;;;;;;;;;;;;;-144.99;67.54;52099.56;5007043;28;20495;-76
2021/04/21 07:11:17;;;;;;;;;;;;;;;-144.99;67.38;52117.91;5011016;28;20057;-78
2021/04/21 07:13:50;;;;;;;;;;;;;;;-144.99;67.44;52101.59;5011217;28;19974;-79
2021/04/21 07:16:23;;;;;;;;;;;;;;;-144.99;67.27;52085.31;5023445;28;19968;-77
2021/04/21 07:18:56;;;;;;;;;;;;;;;-144.99;67.12;52095.50;5008121;28;20466;-79
2021/04/21 07:21:29;;;;;;;;;;;;;;;-144.99;66.95;52126.06;5005006;28;20055;-79
2021/04/21 07:24:02;;;;;;;;;;;;;;;-144.99;66.95;52101.59;5008293;28;20045;-76
2021/04/21 07:26:35;;;;;;;;;;;;;;;-144.99;66.67;52064.91;5009439;28;19970;-78
2021/04/21 07:29:07;;;;;;;;;;;;;;;-144.99;66.05;52085.31;5006202;28;20447;-78
2021/04/21 07:31:37;;;;;;;;;;;;;;;-144.99;65.93;52069.00;5007612;28;20421;-77
2021/04/21 07:34:13;;;;;;;;;;;;;;;-144.99;66.69;52101.59;5011385;28;20067;-78
2021/04/21 07:36:51;;;;;;;;;;;;;;;-144.99;67.25;52105.69;5013626;28;19985;-78
2021/04/21 07:39:23;;;;;;;;;;;;;;;-144.99;68.04;52081.22;5014256;28;19995;-79
2021/04/21 07:41:54;;;;;;;;;;;;;;;-144.99;68.77;52066.97;5010506;28;20473;-76
2021/04/21 07:44:36;;;;;;;;;;;;;;;-144.99;68.68;52097.53;5008319;28;19974;-77
2021/04/21 07:47:17;;;;;;;;;;;;;;;-144.99;69.38;52097.53;5007857;28;19994;-77
2021/04/21 07:49:56;;;;;;;;;;;;;;;-144.99;70.16;52134.22;5005938;28;20007;-78
2021/04/21 07:52:26;;;;;;;;;;;;;;;-144.99;70.81;52089.38;5018621;28;19970;-78
2021/04/21 07:55:09;;;;;;;;;;;;;;;-144.99;71.74;52119.94;5017997;28;20070;-78
2021/04/21 07:57:42;;;;;;;;;;;;;;;-144.99;72.33;52101.59;5007365;28;19995;-76
2021/04/21 08:00:20;;;;;;;;;;;;;;;-144.99;73.79;52111.78;5007227;28;19978;-78
2021/04/21 08:02:53;;;;;;;;;;;;;;;-144.99;74.84;52150.53;5010183;28;20014;-80
2021/04/21 08:05:25;;;;;;;;;;;;;;;-144.99;75.26;52138.28;5005643;28;19979;-78
2021/04/21 08:08:01;;;;;;;;;;;;;;;-144.99;75.78;52130.13;5007014;28;20291;-77
2021/04/21 08:10:33;;;;;;;;;;;;;;;-144.99;76.15;52142.38;5013797;28;19979;-78
2021/04/21 08:13:04;;;;;;;;;;;;;;;-144.99;76.40;52130.13;5012026;28;20267;-74
2021/04/21 08:15:37;;;;;;;;;;;;;;;-144.99;77.10;52111.78;5001148;28;19972;-75
2021/04/21 08:18:12;;;;;;;;;;;;;;;-144.99;77.12;52121.97;5003386;28;20087;-78
2021/04/21 08:20:42;;;;;;;;;;;;;;;-144.99;76.89;52148.47;5004502;28;19975;-79
2021/04/21 08:23:12;;;;;;;;;;;;;;;-144.99;76.62;52142.38;5008873;28;19976;-78
2021/04/21 08:25:44;;;;;;;;;;;;;;;-144.99;76.36;52119.94;5013610;28;20435;-79
2021/04/21 08:28:15;;;;;;;;;;;;;;;-144.99;76.06;52085.31;5008245;28;19936;-77
2021/04/21 08:30:52;;;;;;;;;;;;;;;-144.99;75.44;52117.91;5005138;28;20567;-79
2021/04/21 08:33:24;;;;;;;;;;;;;;;-144.99;73.63;52138.28;5008279;28;19975;-78
2021/04/21 08:35:56;;;;;;;;;;;;;;;-144.99;72.88;52109.75;5006860;28;20118;-80
2021/04/21 08:38:28;;;;;;;;;;;;;;;-144.99;72.21;52109.75;5007267;28;20481;-77
2021/04/21 08:40:59;;;;;;;;;;;;;;;-144.99;70.75;52097.53;5007595;28;19982;-75
2021/04/21 08:43:32;;;;;;;;;;;;;;;-144.99;70.80;52058.81;5006607;28;20552;-78
2021/04/21 08:46:04;;;;;;;;;;;;;;;-144.99;70.17;52109.75;5009378;28;19960;-78
2021/04/21 08:48:37;;;;;;;;;;;;;;;-144.99;70.03;52060.84;5011815;28;19981;-78
2021/04/21 08:51:16;;;;;;;;;;;;;;;-144.99;68.87;52073.06;5010285;28;19982;-80
2021/04/21 08:53:55;;;;;;;;;;;;;;;-144.99;67.45;52060.84;5011098;28;20514;-78
2021/04/21 08:56:33;;;;;;;;;;;;;;;-144.99;67.69;52077.16;5007373;28;20051;-78
2021/04/21 08:59:07;;;;;;;;;;;;;;;-144.99;67.65;52126.06;5008548;28;19990;-77
2021/04/21 09:01:39;;;;;;;;;;;;;;;-144.99;67.66;52097.53;5004376;28;20654;-80
2021/04/21 09:04:11;;;;;;;;;;;;;;;-144.99;67.30;52048.63;5006817;28;20028;-80
2021/04/21 09:06:43;;;;;;;;;;;;;;;-144.99;67.57;52069.00;5011617;28;20183;-79
2021/04/21 09:09:15;;;;;;;;;;;;;;;-144.99;66.84;52146.44;5013119;28;20013;-79
2021/04/21 09:11:47;;;;;;;;;;;;;;;-144.99;66.82;52089.38;5012612;28;19984;-78
2021/04/21 09:14:19;;;;;;;;;;;;;;;-144.99;67.37;52113.84;5007359;28;20379;-77
2021/04/21 09:16:47;;;;;;;;;;;;;;;-144.99;67.88;52105.69;5012558;28;20000;-78
2021/04/21 09:19:20;;;;;;;;;;;;;;;-144.99;68.07;52126.06;5012877;28;19994;-79
2021/04/21 09:22:05;;;;;;;;;;;;;;;-144.99;68.51;52126.06;5003695;28;19977;-78
2021/04/21 09:24:40;;;;;;;;;;;;;;;-144.99;68.44;52130.13;5010206;28;20436;-79
2021/04/21 09:27:32;;;;;;;;;;;;;;;-144.99;68.79;52121.97;5013547;28;20027;-77
2021/04/21 09:30:19;;;;;;;;;;;;;;;-144.99;68.40;52121.97;5008901;28;19991;-79
2021/04/21 09:32:49;;;;;;;;;;;;;;;-144.99;68.07;52097.53;5012518;28;20049;-80
2021/04/21 09:35:29;;;;;;;;;;;;;;;-144.99;67.55;52105.69;5012945;28;20395;-77
2021/04/21 09:38:06;;;;;;;;;;;;;;;-144.99;66.98;52101.59;5008619;28;19999;-79
2021/04/21 09:40:39;;;;;;;;;;;;;;;-144.99;66.15;52134.22;5010700;28;20010;-77
2021/04/21 09:43:22;;;;;;;;;;;;;;;-144.99;66.14;52121.97;5010792;28;19977;-81
2021/04/21 09:45:55;;;;;;;;;;;;;;;-144.99;65.38;52128.09;5002115;28;19990;-80
2021/04/21 09:48:29;;;;;;;;;;;;;;;-144.99;65.85;52105.69;5013669;28;20014;-79
2021/04/21 09:51:00;;;;;;;;;;;;;;;-144.99;66.50;52142.38;5015768;28;20015;-79
2021/04/21 09:53:33;;;;;;;;;;;;;;;-144.99;66.20;52097.53;5022531;28;19999;-77
2021/04/21 09:56:19;;;;;;;;;;;;;;;-144.99;66.66;52077.16;5011079;28;20352;-77
2021/04/21 09:58:49;;;;;;;;;;;;;;;-144.99;66.37;52073.06;5010111;28;20010;-78
2021/04/21 10:01:24;;;;;;;;;;;;;;;-144.99;65.54;52089.38;5006057;28;19988;-81
2021/04/21 10:04:13;;;;;;;;;;;;;;;-144.99;62.72;52060.84;5013229;28;19980;-80
2021/04/21 10:06:47;;;;;;;;;;;;;;;-144.99;59.51;52073.06;5008175;28;20004;-82
2021/04/21 10:09:29;;;;;;;;;;;;;;;-144.99;59.33;52073.06;5008082;28;20004;-78
2021/04/21 10:12:12;;;;;;;;;;;;;;;-144.99;58.07;52093.44;5018808;28;20021;-80
2021/04/21 10:14:46;;;;;;;;;;;;;;;-144.99;57.37;52113.84;5029584;28;19984;-81
2021/04/21 10:17:18;;;;;;;;;;;;;;;-144.99;57.75;52109.75;5031107;28;19981;-79
2021/04/21 10:19:49;;;;;;;;;;;;;;;-144.99;58.45;52093.44;5026295;28;19989;-75
2021/04/21 10:22:23;;;;;;;;;;;;;;;-144.99;57.97;52064.91;5031061;28;19977;-79
2021/04/21 10:24:51;;;;;;;;;;;;;;;-144.99;56.75;52081.22;5032099;28;19971;-79
2021/04/21 10:27:23;;;;;;;;;;;;;;;-144.99;55.82;52060.84;5025967;28;20068;-78
2021/04/21 10:29:54;;;;;;;;;;;;;;;-144.99;55.13;52081.22;5013126;28;19982;-77
2021/04/21 10:32:26;;;;;;;;;;;;;;;-144.99;54.76;52081.22;5008075;28;19979;-79
2021/04/21 10:34:58;;;;;;;;;;;;;;;-144.99;54.21;52113.84;5006842;28;19976;-73
2021/04/21 10:37:30;;;;;;;;;;;;;;;-144.99;54.34;52036.38;5000911;28;20093;-77
2021/04/21 10:40:02;;;;;;;;;;;;;;;-144.99;54.03;52081.22;5004541;28;20412;-74
2021/04/21 10:42:48;;;;;;;;;;;;;;;-144.99;53.36;52101.59;5006217;28;20015;-74
2021/04/21 10:45:20;;;;;;;;;;;;;;;-144.99;53.38;52085.31;5001348;28;20432;-75
2021/04/21 10:47:53;;;;;;;;;;;;;;;-144.99;52.78;52089.38;5007307;28;19977;-77
2021/04/21 10:50:36;;;;;;;;;;;;;;;-144.99;52.97;52052.69;5021606;28;20009;-78
2021/04/21 10:53:08;;;;;;;;;;;;;;;-144.99;52.78;51960.97;5027297;28;19987;-82
2021/04/21 10:55:47;;;;;;;;;;;;;;;-144.99;52.11;51973.22;5018495;28;19980;-77
2021/04/21 10:58:18;;;;;;;;;;;;;;;-144.99;52.52;52036.38;5017447;28;19993;-79
2021/04/21 11:00:50;;;;;;;;;;;;;;;-144.99;51.32;51873.34;5012985;28;20052;-78
2021/04/21 11:03:26;;;;;;;;;;;;;;;-144.99;47.92;52056.78;5016153;28;19982;-78
2021/04/21 11:06:02;;;;;;;;;;;;;;;-144.99;46.73;51920.22;5008566;28;19980;-76
2021/04/21 11:08:51;;;;;;;;;;;;;;;-144.99;46.11;51967.09;5011673;28;19994;-77
2021/04/21 11:11:36;;;;;;;;;;;;;;;-144.99;45.19;52030.28;5011262;28;20324;-80
2021/04/21 11:14:09;;;;;;;;;;;;;;;-144.99;45.30;51954.88;5014017;28;19972;-79
2021/04/21 11:16:47;;;;;;;;;;;;;;;-144.99;44.73;52024.16;5009771;28;20004;-79
2021/04/21 11:19:34;;;;;;;;;;;;;;;-144.99;44.24;52044.53;5010566;28;20668;-78
2021/04/21 11:22:27;;;;;;;;;;;;;;;-144.99;44.06;52020.09;5014961;28;20052;-78
2021/04/21 11:25:15;;;;;;;;;;;;;;;-144.99;44.73;52073.06;5013342;28;19978;-79
2021/04/21 11:27:52;;;;;;;;;;;;;;;-144.99;44.68;52073.06;5013895;28;20024;-79
2021/04/21 11:30:54;;;;;;;;;;;;;;;-144.99;45.46;52032.31;5025140;28;19977;-79
2021/04/21 11:33:41;;;;;;;;;;;;;;;-144.99;45.75;52056.78;5017069;28;20384;-77
2021/04/21 11:36:31;;;;;;;;;;;;;;;-144.99;46.21;52111.78;5014849;28;20475;-78
2021/04/21 11:39:02;;;;;;;;;;;;;;;-144.99;45.81;52007.84;5001722;28;19998;-79
2021/04/21 11:41:46;;;;;;;;;;;;;;;-144.99;45.57;52036.38;5019460;28;20056;-80
2021/04/21 11:44:38;;;;;;;;;;;;;;;-144.99;46.37;52077.16;5011161;28;20012;-80
2021/04/21 11:47:18;;;;;;;;;;;;;;;-144.99;46.06;52052.69;5003434;28;20038;-81
2021/04/21 11:50:05;;;;;;;;;;;;;;;-144.99;44.92;52011.94;5014872;28;19992;-78
2021/04/21 11:52:52;;;;;;;;;;;;;;;-144.99;44.64;52052.69;5019860;28;19989;-82
2021/04/21 11:55:23;;;;;;;;;;;;;;;-144.99;43.41;51901.88;5018979;28;19982;-79
2021/04/21 11:57:59;;;;;;;;;;;;;;;-144.99;43.25;52024.16;5016120;28;19988;-79
2021/04/21 12:00:32;;;;;;;;;;;;;;;-144.99;43.80;51995.63;5011038;28;20539;-78
2021/04/21 12:03:06;;;;;;;;;;;;;;;-144.99;43.15;52020.09;5013106;28;20007;-78
2021/04/21 12:05:38;;;;;;;;;;;;;;;-144.99;42.97;51918.19;5010662;28;19978;-80
2021/04/21 12:08:19;;;;;;;;;;;;;;;-144.99;42.45;51877.44;5010793;28;20008;-80
2021/04/21 12:10:52;;;;;;;;;;;;;;;-144.99;40.72;51901.88;5012570;28;19982;-78
2021/04/21 12:13:24;;;;;;;;;;;;;;;-144.99;40.26;51895.75;5007326;28;19979;-80
2021/04/21 12:16:09;;;;;;;;;;;;;;;-144.99;40.78;51971.16;5006598;28;20059;-77
2021/04/21 12:18:43;;;;;;;;;;;;;;;-144.99;40.12;51901.88;5013479;28;20048;-79
2021/04/21 12:21:30;;;;;;;;;;;;;;;-144.99;39.76;52040.47;5009536;28;20432;-80
2021/04/21 12:24:03;;;;;;;;;;;;;;;-144.99;40.30;52011.94;5007047;28;20024;-79
2021/04/21 12:26:35;;;;;;;;;;;;;;;-144.99;39.99;52048.63;5008250;28;19995;-80
2021/04/21 12:29:09;;;;;;;;;;;;;;;-144.99;40.05;52069.00;5010819;28;20429;-78
2021/04/21 12:31:41;;;;;;;;;;;;;;;-144.99;39.45;51960.97;5007654;28;20484;-78
2021/04/21 12:34:17;;;;;;;;;;;;;;;-144.99;39.22;51971.16;5010850;28;19976;-79
2021/04/21 12:36:50;;;;;;;;;;;;;;;-144.99;38.92;52003.78;5007501;28;19996;-78
2021/04/21 12:39:28;;;;;;;;;;;;;;;-144.99;37.87;51975.25;5011903;28;20018;-81
2021/04/21 12:42:06;;;;;;;;;;;;;;;-144.99;38.24;51987.47;5008211;28;19976;-78
2021/04/21 12:44:40;;;;;;;;;;;;;;;-144.99;38.13;51958.94;5016267;28;20072;-80
2021/04/21 12:47:13;;;;;;;;;;;;;;;-144.99;38.31;51946.72;5011670;28;20249;-79
2021/04/21 12:49:47;;;;;;;;;;;;;;;-144.99;39.21;51987.47;5012571;28;20019;-79
2021/04/21 12:52:20;;;;;;;;;;;;;;;-144.99;39.37;51956.91;5003643;28;19951;-78
2021/04/21 12:54:52;;;;;;;;;;;;;;;-144.99;39.98;51971.16;5004543;28;19977;-79
2021/04/21 12:57:25;;;;;;;;;;;;;;;-144.99;40.16;51956.91;5006629;28;19997;-77
2021/04/21 12:59:58;;;;;;;;;;;;;;;-144.99;39.18;52136.25;5000860;28;19992;-76
2021/04/21 13:02:47;;;;;;;;;;;;;;;-144.99;38.81;52001.75;5011301;28;19981;-81
2021/04/21 13:05:21;;;;;;;;;;;;;;;-144.99;38.91;52003.78;5014973;28;19973;-79
2021/04/21 13:08:18;;;;;;;;;;;;;;;-144.99;39.33;51971.16;5024571;28;19986;-81
2021/04/21 13:10:48;;;;;;;;;;;;;;;-144.99;39.23;52016.00;5024864;28;19997;-83